Aeroporto :
LOGIN :

Iscrizione | Disclaimer

   EN    FR    IT 

 










Sommario :    VFR   VFR Marginale   IFR   IFR Intensivo   IFR Molto Intensivo
Visibilità : 
Base nubi : 
>= 8 km
>= 3000ft
5 / 8 km
1000 / 3000 ft
1500m / 5 km
500 / 1000 ft
800 / 1500m
200 / 500 ft
< 800m
< 200 ft
Simboli :   Temporali  Nebbia  Neve Forte  Precipitazioni Forti  Vento > 20 kt
SIGMETs :   Varie  Temporali  Ghiacco  Turbolenza  Onda orograficha  Ceneri Vulcaniche






- Altitudine del aeroporto : 267 ft


EGDR - Culdrose Navy

ULTIMO METAR :
  • 221550Z AUTO 06010KT 1600 // OVC001/// 07/07 Q1034

METARs OBSOLETI :
  • 221457Z 06010KT 2000 -DZ SCT003 OVC005 07/06 Q1035 TEMPO 2000 -DZ SCT002 RMK YLO2 TEMPO AMB
  • 221350Z 05011KT 6000 -DZ FEW003 SCT006 BKN007 07/06 Q1035 NOSIG RMK YLO1 YLO1

TAF TAF EGDR
Valido dal 22 a 15 ore il 23 a 00 ore UTC


221340Z 2215/2224 09010G20KT 9999 BKN006
BECMG 2216/2218 09015G25KT 4000 BR SCT004 BKN008
PROB40
TEMPO 2217/2224 3000 -DZ SCT002
PROB30
TEMPO 2217/2224 09010KT 0700 FG SCT001



MetMap, La meteo Aeronautica in un colpo d'occhio ! - Copyright ORBIFLY Dicembre 2007 - Disclaimer

ORBIFLY MET'MAP TEAM :

Programmazione e sviluppo : Alexandra Zaïnal
Concezione : Baudouin d'Aumeries
Aiuto per la programmazione : Marc-Olivier Méhu
Supporto tecnico e logistico : Manuel Goepfert
Aiuto per la traduzione : Arnaldo La Scala

Contatto : metmap@orbifly.com




FONTI E CREDITI :

   NOAA